Time;durP1;ratioP1;P1;durP2;ratioP2;P2;SDS_P1;SDS_P2;PMS_P1;PMS_P2;Temp;Humidity;BMP_temperature;BMP_pressure;BME280_temperature;BME280_humidity;BME280_pressure;Samples;Min_cycle;Max_cycle;Signal;HPM_P1;HPM_P2
2023/09/29 00:00:17;;;;;;;11.65;4.72;;;;;;;18.03;72.02;99296.22;4485232;31;20119;-78
2023/09/29 00:02:46;;;;;;;9.00;4.85;;;;;;;17.90;72.21;99299.44;4485683;31;20080;-78
2023/09/29 00:05:17;;;;;;;10.02;4.50;;;;;;;17.91;72.58;99291.31;4485556;32;20543;-78
2023/09/29 00:07:45;;;;;;;11.68;5.20;;;;;;;17.84;72.79;99300.09;4485608;31;20088;-78
2023/09/29 00:10:15;;;;;;;11.80;4.28;;;;;;;17.97;71.21;99288.94;4485777;31;20118;-78
2023/09/29 00:12:44;;;;;;;7.90;4.10;;;;;;;18.03;71.66;99290.91;4485566;31;20092;-78
2023/09/29 00:15:12;;;;;;;13.43;4.45;;;;;;;17.94;71.96;99286.63;4483163;31;20598;-78
2023/09/29 00:17:57;;;;;;;11.15;4.65;;;;;;;17.93;71.70;99298.25;4469754;32;20092;-78
2023/09/29 00:20:24;;;;;;;8.55;5.00;;;;;;;17.95;71.89;99289.12;4469615;32;20097;-78
2023/09/29 00:22:55;;;;;;;13.43;4.53;;;;;;;17.89;72.26;99292.47;4469803;32;20084;-78
2023/09/29 00:25:26;;;;;;;8.15;4.55;;;;;;;17.86;71.92;99295.44;4469747;32;20168;-78
2023/09/29 00:27:55;;;;;;;9.20;4.43;;;;;;;17.85;72.21;99294.59;4469964;32;20101;-78
2023/09/29 00:30:22;;;;;;;11.07;4.55;;;;;;;17.81;72.54;99289.81;4469853;32;20156;-78
2023/09/29 00:32:52;;;;;;;9.90;4.43;;;;;;;17.76;72.57;99295.62;4469818;32;20130;-78
2023/09/29 00:37:51;;;;;;;11.57;4.80;;;;;;;17.74;72.92;99292.31;4470061;32;20133;-78
2023/09/29 00:40:18;;;;;;;6.78;4.45;;;;;;;17.82;72.00;99280.84;4469753;32;20118;-78
2023/09/29 00:42:46;;;;;;;5.85;4.40;;;;;;;17.96;71.39;99279.38;4469605;32;20501;-78
2023/09/29 00:45:16;;;;;;;7.70;4.00;;;;;;;18.02;70.85;99278.69;4469726;32;20096;-78
2023/09/29 00:48:10;;;;;;;9.32;4.93;;;;;;;18.03;70.79;99277.66;4469761;32;20516;-78
2023/09/29 00:50:38;;;;;;;12.80;4.78;;;;;;;18.06;70.85;99279.97;4469534;32;20088;-78
2023/09/29 00:53:11;;;;;;;9.63;4.22;;;;;;;17.99;71.01;99273.72;4473644;32;20144;-79
2023/09/29 00:55:43;;;;;;;11.57;4.62;;;;;;;18.03;70.75;99273.19;4485153;31;20096;-78
2023/09/29 00:58:12;;;;;;;8.40;5.05;;;;;;;18.02;70.65;99278.69;4485439;31;20084;-78
2023/09/29 01:00:41;;;;;;;7.40;4.68;;;;;;;18.04;70.56;99269.53;4484953;32;20115;-78
2023/09/29 01:03:12;;;;;;;8.93;4.60;;;;;;;18.04;70.89;99272.19;4485288;31;20081;-78
2023/09/29 01:05:46;;;;;;;11.40;4.40;;;;;;;17.97;71.30;99271.25;4485354;31;20431;-78
2023/09/29 01:08:19;;;;;;;7.87;4.45;;;;;;;17.85;72.52;99268.09;4485512;31;20573;-78
2023/09/29 01:10:47;;;;;;;8.00;4.60;;;;;;;17.81;72.66;99269.44;4485290;31;20092;-78
2023/09/29 01:13:15;;;;;;;8.95;3.90;;;;;;;17.66;72.81;99271.16;4485215;31;20221;-78
2023/09/29 01:15:42;;;;;;;10.85;4.28;;;;;;;17.68;72.95;99267.34;4479141;31;20104;-78
2023/09/29 01:18:11;;;;;;;8.68;5.32;;;;;;;17.63;73.07;99274.97;4469439;32;20116;-78
2023/09/29 01:20:40;;;;;;;7.75;5.55;;;;;;;17.69;72.65;99276.09;4469359;32;20147;-78
2023/09/29 01:23:07;;;;;;;9.90;4.45;;;;;;;17.70;72.56;99273.28;4469449;32;20445;-78
2023/09/29 01:25:36;;;;;;;7.00;4.40;;;;;;;17.81;72.04;99277.37;4469509;32;20100;-78
2023/09/29 01:28:06;;;;;;;10.43;4.62;;;;;;;17.78;72.13;99277.72;4469377;32;20108;-78
2023/09/29 01:30:34;;;;;;;14.15;4.53;;;;;;;17.77;72.47;99277.91;4469385;32;20095;-78
2023/09/29 01:33:02;;;;;;;12.32;5.03;;;;;;;17.74;72.35;99271.13;4469291;32;20221;-78
2023/09/29 01:35:30;;;;;;;11.93;5.22;;;;;;;17.73;72.56;99264.19;4469192;32;20097;-78
2023/09/29 01:38:00;;;;;;;9.20;4.75;;;;;;;17.70;72.52;99264.53;4469410;32;20084;-79
2023/09/29 01:40:29;;;;;;;6.75;4.62;;;;;;;17.77;72.23;99269.94;4469343;32;20084;-78
2023/09/29 01:42:57;;;;;;;7.28;3.97;;;;;;;17.71;72.58;99264.34;4469065;32;20109;-78
2023/09/29 01:45:26;;;;;;;13.32;4.85;;;;;;;17.65;72.80;99269.50;4469451;32;20097;-78
2023/09/29 01:47:54;;;;;;;8.38;4.90;;;;;;;17.60;73.20;99259.41;4469362;32;20119;-78
2023/09/29 01:50:23;;;;;;;10.20;4.62;;;;;;;17.56;73.57;99264.22;4469195;32;20096;-78
2023/09/29 01:52:51;;;;;;;7.65;4.50;;;;;;;17.49;73.94;99265.91;4471395;32;20518;-78
2023/09/29 01:55:20;;;;;;;10.20;4.87;;;;;;;17.48;73.98;99264.22;4484743;32;20120;-78
2023/09/29 01:57:49;;;;;;;9.32;4.15;;;;;;;17.56;73.60;99263.38;4484845;31;20121;-78
2023/09/29 02:00:24;;;;;;;10.20;4.90;;;;;;;17.54;73.66;99262.72;4485005;31;20100;-78
2023/09/29 02:02:53;;;;;;;9.68;4.80;;;;;;;17.49;74.18;99267.72;4484648;31;20080;-78
2023/09/29 02:05:23;;;;;;;12.45;4.40;;;;;;;17.43;74.43;99266.56;4485000;31;20088;-78
2023/09/29 02:07:51;;;;;;;9.07;4.62;;;;;;;17.40;74.57;99269.56;4484762;31;20168;-78
2023/09/29 02:10:21;;;;;;;8.95;4.10;;;;;;;17.36;74.54;99258.47;4484945;31;20171;-78
2023/09/29 02:12:57;;;;;;;5.62;4.28;;;;;;;17.35;74.60;99262.13;4483652;31;20461;-78
2023/09/29 02:15:26;;;;;;;8.90;4.82;;;;;;;17.31;74.79;99257.34;4480860;31;20089;-78
2023/09/29 02:17:53;;;;;;;8.90;4.80;;;;;;;17.28;75.25;99260.31;4468771;32;20116;-78
2023/09/29 02:20:25;;;;;;;6.45;4.70;;;;;;;17.19;75.63;99257.66;4469060;32;20115;-78
2023/09/29 02:22:55;;;;;;;10.13;5.28;;;;;;;17.19;75.72;99259.50;4468815;32;20430;-78
2023/09/29 02:25:25;;;;;;;11.05;5.12;;;;;;;17.17;76.03;99262.31;4468957;32;20154;-78
2023/09/29 02:27:54;;;;;;;8.88;4.80;;;;;;;17.22;75.75;99266.28;4469190;32;20093;-78
2023/09/29 02:30:21;;;;;;;9.82;5.70;;;;;;;17.15;76.06;99259.03;4468777;32;20088;-78
2023/09/29 02:32:52;;;;;;;15.38;5.60;;;;;;;17.15;76.21;99263.47;4468665;32;20093;-78
2023/09/29 02:35:20;;;;;;;6.00;4.30;;;;;;;17.15;76.32;99255.53;4468819;32;20169;-78
2023/09/29 02:37:47;;;;;;;8.35;4.85;;;;;;;17.09;76.71;99254.37;4468630;32;20454;-78
2023/09/29 02:40:18;;;;;;;8.57;5.37;;;;;;;17.13;76.51;99257.53;4468745;32;20490;-78
2023/09/29 02:42:46;;;;;;;7.93;4.47;;;;;;;17.11;76.57;99260.34;4468576;32;20084;-78
2023/09/29 02:45:13;;;;;;;10.82;5.03;;;;;;;17.09;76.85;99259.66;4468804;32;20112;-78
2023/09/29 02:47:46;;;;;;;13.05;5.53;;;;;;;17.09;77.04;99256.19;4468468;32;20560;-78
2023/09/29 02:50:15;;;;;;;8.82;4.20;;;;;;;17.05;77.39;99261.00;4468738;32;20107;-78
2023/09/29 02:52:42;;;;;;;9.40;4.80;;;;;;;16.99;77.68;99256.38;4469802;32;20096;-78
2023/09/29 02:55:14;;;;;;;6.20;4.78;;;;;;;17.06;77.36;99256.53;4484113;31;20092;-78
2023/09/29 02:57:43;;;;;;;12.30;5.03;;;;;;;17.06;77.66;99261.81;4484199;31;20114;-78
2023/09/29 03:00:18;;;;;;;10.15;5.00;;;;;;;17.10;77.21;99258.69;4484210;31;20563;-78
2023/09/29 03:02:47;;;;;;;10.32;4.95;;;;;;;17.12;77.26;99255.88;4484086;31;20596;-78
2023/09/29 03:05:16;;;;;;;7.50;5.12;;;;;;;17.09;77.08;99254.37;4484123;31;20525;-78
2023/09/29 03:07:43;;;;;;;9.10;5.05;;;;;;;17.08;77.40;99252.75;4484010;32;20096;-78
2023/09/29 03:10:15;;;;;;;6.97;4.82;;;;;;;17.09;77.30;99250.91;4484082;31;20096;-78
2023/09/29 03:12:44;;;;;;;10.43;4.72;;;;;;;17.06;77.32;99249.41;4483833;31;20103;-78
2023/09/29 03:15:16;;;;;;;9.43;4.95;;;;;;;17.10;77.17;99252.56;4481573;32;20536;-78
2023/09/29 03:17:45;;;;;;;8.73;4.90;;;;;;;17.09;77.13;99253.56;4468041;32;20468;-78
2023/09/29 03:20:14;;;;;;;10.95;5.12;;;;;;;17.09;77.11;99257.00;4468016;32;20115;-78
2023/09/29 03:22:44;;;;;;;7.53;4.82;;;;;;;17.08;76.94;99255.38;4468261;32;20114;-78
2023/09/29 03:25:20;;;;;;;11.32;4.60;;;;;;;17.08;77.09;99255.38;4468767;32;20089;-78
2023/09/29 03:27:48;;;;;;;13.25;5.53;;;;;;;17.08;77.00;99254.53;4470260;32;20089;-78
2023/09/29 03:30:15;;;;;;;10.30;4.78;;;;;;;17.02;77.32;99256.88;4470273;32;20119;-78
2023/09/29 03:32:43;;;;;;;7.22;4.85;;;;;;;17.02;77.59;99264.00;4470159;32;20426;-78
2023/09/29 03:35:13;;;;;;;10.35;5.28;;;;;;;16.93;78.18;99262.34;4469875;32;20100;-78
2023/09/29 03:37:43;;;;;;;11.77;5.32;;;;;;;16.89;78.56;99258.38;4470073;32;20563;-78
2023/09/29 03:40:13;;;;;;;9.25;4.95;;;;;;;16.82;78.76;99256.34;4469999;32;20045;-78
2023/09/29 03:42:41;;;;;;;13.62;4.87;;;;;;;16.73;79.32;99260.00;4469836;32;20097;-78
2023/09/29 03:45:11;;;;;;;8.40;5.12;;;;;;;16.79;79.08;99259.34;4470007;32;20408;-78
2023/09/29 03:47:40;;;;;;;10.73;4.45;;;;;;;16.72;79.64;99260.97;4470039;32;20089;-78
2023/09/29 03:50:11;;;;;;;10.85;4.68;;;;;;;16.68;79.72;99263.13;4470050;32;20088;-78
2023/09/29 03:52:42;;;;;;;11.50;5.10;;;;;;;16.59;80.27;99266.75;4471062;32;20097;-78
2023/09/29 03:55:12;;;;;;;9.80;4.70;;;;;;;16.48;80.94;99264.41;4485807;31;20630;-78
2023/09/29 03:57:41;;;;;;;12.55;5.62;;;;;;;16.39;81.58;99260.13;4485717;31;20085;-78
2023/09/29 04:00:12;;;;;;;8.63;5.10;;;;;;;16.28;82.16;99264.72;4485538;31;20497;-78
2023/09/29 04:02:40;;;;;;;9.60;5.20;;;;;;;16.25;82.45;99272.16;4484754;31;20084;-78
2023/09/29 04:05:09;;;;;;;12.30;5.80;;;;;;;16.18;82.91;99269.31;4485363;31;20157;-78
2023/09/29 04:07:39;;;;;;;12.48;5.07;;;;;;;16.09;83.29;99264.97;4485005;31;20456;-78
2023/09/29 04:10:11;;;;;;;9.90;5.07;;;;;;;16.05;83.48;99269.78;4483909;31;20093;-78
2023/09/29 04:12:41;;;;;;;8.13;4.75;;;;;;;16.00;83.87;99268.59;4485623;31;20106;-78
2023/09/29 04:15:08;;;;;;;9.02;5.82;;;;;;;15.93;84.80;99278.97;4485374;31;20442;-78
2023/09/29 04:17:36;;;;;;;10.02;5.07;;;;;;;15.86;84.89;99281.41;4485694;31;20089;-78
2023/09/29 04:20:05;;;;;;;11.65;5.35;;;;;;;15.79;85.02;99272.47;4486839;31;20115;-78
2023/09/29 04:22:34;;;;;;;9.65;5.70;;;;;;;15.70;85.54;99276.03;4493447;31;20100;-78
2023/09/29 04:25:02;;;;;;;8.93;5.43;;;;;;;15.72;85.39;99282.81;4499479;31;20108;-78
2023/09/29 04:27:30;;;;;;;8.98;5.12;;;;;;;15.78;85.27;99276.09;4487130;31;20097;-78
2023/09/29 04:29:58;;;;;;;13.82;5.30;;;;;;;15.89;84.56;99273.16;4490021;31;20183;-77
2023/09/29 04:32:26;;;;;;;10.27;4.70;;;;;;;15.98;83.99;99268.75;4485231;32;20088;-77
2023/09/29 04:34:54;;;;;;;11.70;5.32;;;;;;;16.02;83.56;99272.75;4485215;31;20119;-77
2023/09/29 04:37:22;;;;;;;7.12;5.12;;;;;;;16.06;83.14;99274.06;4497618;31;20096;-77
2023/09/29 04:39:50;;;;;;;8.25;5.70;;;;;;;16.14;82.56;99283.84;4485452;31;20627;-77
2023/09/29 04:42:18;;;;;;;12.55;4.62;;;;;;;16.21;81.93;99278.75;4484945;31;20479;-77
2023/09/29 04:44:46;;;;;;;8.35;5.10;;;;;;;16.29;81.58;99279.59;4497499;31;20171;-77
2023/09/29 04:47:14;;;;;;;15.23;5.47;;;;;;;16.31;81.45;99282.06;4495577;31;20084;-77
2023/09/29 04:49:42;;;;;;;9.48;5.28;;;;;;;16.36;81.07;99284.22;4483768;31;20153;-77
2023/09/29 04:52:10;;;;;;;13.05;4.93;;;;;;;16.42;80.91;99287.03;4476507;31;20108;-77
2023/09/29 04:54:39;;;;;;;16.55;5.72;;;;;;;16.40;80.88;99289.03;4485875;31;20096;-76
2023/09/29 04:57:06;;;;;;;11.90;6.37;;;;;;;16.40;81.02;99293.50;4501173;31;20080;-76
2023/09/29 04:59:35;;;;;;;14.02;6.15;;;;;;;16.39;81.08;99291.84;4486003;31;20156;-77
2023/09/29 05:02:05;;;;;;;13.32;6.03;;;;;;;16.44;80.99;99289.53;4481706;31;20792;-77
2023/09/29 05:04:33;;;;;;;14.18;5.82;;;;;;;16.45;81.05;99291.19;4488040;31;20134;-77
2023/09/29 05:07:02;;;;;;;11.18;5.37;;;;;;;16.52;80.41;99288.72;4483208;31;20100;-77
2023/09/29 05:09:29;;;;;;;16.52;6.03;;;;;;;16.58;80.53;99296.00;4480751;31;20101;-77
2023/09/29 05:11:56;;;;;;;12.40;6.00;;;;;;;16.62;80.40;99292.87;4483714;31;20417;-77
2023/09/29 05:14:25;;;;;;;8.95;4.78;;;;;;;16.66;80.08;99290.75;4483114;31;20096;-82
2023/09/29 05:16:54;;;;;;;8.85;5.50;;;;;;;16.72;79.93;99292.72;4483602;31;20386;-81
2023/09/29 05:19:25;;;;;;;10.57;5.43;;;;;;;16.83;79.52;99295.03;4482037;31;20092;-82
2023/09/29 05:21:53;;;;;;;11.05;5.05;;;;;;;16.90;79.46;99289.16;4483179;31;20092;-83
2023/09/29 05:24:20;;;;;;;12.90;5.15;;;;;;;16.95;78.90;99292.09;4476332;32;20092;-82
2023/09/29 05:26:47;;;;;;;8.40;5.07;;;;;;;17.05;78.54;99292.78;4481712;32;20088;-82
2023/09/29 05:29:16;;;;;;;17.85;5.50;;;;;;;17.16;77.47;99292.41;4483141;31;20088;-82
2023/09/29 05:31:45;;;;;;;15.05;5.37;;;;;;;17.29;77.89;99293.72;4484469;31;20107;-81
2023/09/29 05:34:12;;;;;;;15.98;6.20;;;;;;;17.39;76.90;99299.69;4480645;31;85186;-82
2023/09/29 05:36:39;;;;;;;20.00;5.87;;;;;;;17.49;77.00;99296.88;4484371;31;20833;-82
2023/09/29 05:39:09;;;;;;;17.95;6.35;;;;;;;17.59;76.87;99294.84;4476348;31;20096;-81
2023/09/29 05:41:37;;;;;;;25.92;6.30;;;;;;;17.73;75.60;99311.88;4480132;31;20130;-81
2023/09/29 05:44:05;;;;;;;81.87;8.45;;;;;;;17.81;75.55;99306.53;4481526;32;20717;-81
2023/09/29 05:46:32;;;;;;;26.48;5.40;;;;;;;17.89;75.70;99303.88;4487856;31;20484;-83
2023/09/29 05:49:01;;;;;;;20.27;5.82;;;;;;;17.96;74.42;99304.03;4496336;31;20155;-81
2023/09/29 05:51:30;;;;;;;46.05;9.18;;;;;;;18.02;74.81;99305.19;4484463;32;20156;-83
2023/09/29 05:53:58;;;;;;;17.98;5.93;;;;;;;18.18;74.74;99310.41;4480668;31;20088;-82
2023/09/29 05:56:26;;;;;;;35.50;6.50;;;;;;;18.23;74.04;99301.94;4484017;31;20104;-82
2023/09/29 05:58:56;;;;;;;56.72;7.20;;;;;;;18.30;73.90;99307.37;4487214;31;20096;-82
2023/09/29 06:01:25;;;;;;;21.40;4.93;;;;;;;18.38;74.27;99307.31;4485431;31;20794;-82
2023/09/29 06:03:53;;;;;;;10.77;5.45;;;;;;;18.41;73.47;99310.47;4464750;32;20564;-82
2023/09/29 06:06:21;;;;;;;18.05;6.12;;;;;;;18.53;73.89;99313.56;4470938;32;20136;-85
2023/09/29 06:08:49;;;;;;;27.27;5.15;;;;;;;18.61;72.92;99310.81;4470899;32;20474;-82
2023/09/29 06:11:22;;;;;;;19.45;5.50;;;;;;;18.61;72.88;99317.97;4474128;31;20118;-81
2023/09/29 06:13:50;;;;;;;9.40;5.03;;;;;;;18.82;73.43;99317.34;4467711;31;20108;-80
2023/09/29 06:16:18;;;;;;;16.52;5.80;;;;;;;18.79;71.76;99318.50;4471517;32;20887;-84
2023/09/29 06:18:46;;;;;;;18.70;5.40;;;;;;;18.93;72.47;99319.59;4473204;32;20139;-82
2023/09/29 06:21:14;;;;;;;11.10;5.15;;;;;;;18.96;71.74;99323.72;4467446;32;20093;-82
2023/09/29 06:23:41;;;;;;;10.80;4.57;;;;;;;19.11;71.84;99327.25;4469954;31;20120;-79
2023/09/29 06:26:09;;;;;;;14.95;5.10;;;;;;;19.14;71.06;99323.44;4473730;32;20460;-81
2023/09/29 06:28:38;;;;;;;12.05;5.87;;;;;;;19.27;71.09;99331.63;4472783;32;20131;-85
2023/09/29 06:31:07;;;;;;;22.87;6.20;;;;;;;19.33;70.68;99327.41;4469708;32;20113;-81
2023/09/29 06:33:35;;;;;;;21.87;6.22;;;;;;;19.53;70.50;99335.69;4470199;32;20131;-81
2023/09/29 06:36:02;;;;;;;15.05;5.60;;;;;;;19.48;69.53;99332.75;4467043;32;20118;-81
2023/09/29 06:38:29;;;;;;;19.05;4.82;;;;;;;19.48;68.44;99340.72;4470756;32;20100;-79
2023/09/29 06:40:58;;;;;;;9.13;5.40;;;;;;;19.48;68.84;99338.06;4468558;32;20104;-82
2023/09/29 06:43:26;;;;;;;10.27;5.40;;;;;;;19.64;69.27;99335.25;4469439;32;20104;-81
2023/09/29 06:45:53;;;;;;;11.35;5.20;;;;;;;19.80;68.67;99338.75;4473166;32;20116;-81
2023/09/29 06:48:28;;;;;;;16.00;5.40;;;;;;;19.91;68.89;99338.31;4468743;31;20119;-79
2023/09/29 06:50:59;;;;;;;9.77;5.15;;;;;;;19.92;69.15;99337.28;4469053;31;20824;-80
2023/09/29 06:53:31;;;;;;;11.82;4.82;;;;;;;19.98;68.50;99343.72;4471117;32;20104;-79
2023/09/29 06:55:59;;;;;;;12.10;5.90;;;;;;;20.14;68.13;99337.37;4474321;31;20150;-81
2023/09/29 06:58:27;;;;;;;14.45;5.10;;;;;;;20.25;67.24;99339.56;4469232;32;20108;-79
2023/09/29 07:00:56;;;;;;;14.43;5.20;;;;;;;20.35;67.26;99350.75;4468490;32;20112;-80
2023/09/29 07:03:31;;;;;;;14.80;5.45;;;;;;;20.42;68.08;99352.66;4470474;32;20749;-78
2023/09/29 07:06:00;;;;;;;11.82;5.20;;;;;;;20.48;66.78;99354.56;4473931;32;20100;-80
2023/09/29 07:08:28;;;;;;;7.62;5.15;;;;;;;20.69;66.40;99356.47;4473718;32;20427;-82
2023/09/29 07:10:56;;;;;;;13.90;5.60;;;;;;;20.58;66.45;99357.75;4473802;31;20111;-82
2023/09/29 07:13:24;;;;;;;23.30;5.68;;;;;;;20.57;65.44;99364.09;4474146;31;20840;-81
2023/09/29 07:15:52;;;;;;;11.05;4.82;;;;;;;20.80;66.79;99366.63;4472438;32;20104;-79
2023/09/29 07:18:22;;;;;;;10.30;5.00;;;;;;;20.87;64.83;99364.84;4473170;32;20192;-81
2023/09/29 07:20:53;;;;;;;14.02;5.32;;;;;;;20.86;64.88;99367.72;4470975;32;20109;-78
2023/09/29 07:23:24;;;;;;;8.77;5.12;;;;;;;20.88;62.80;99366.50;4476618;31;20158;-78
2023/09/29 07:25:52;;;;;;;12.90;5.15;;;;;;;21.13;64.81;99370.66;4472249;31;20088;-78
2023/09/29 07:28:22;;;;;;;6.90;4.80;;;;;;;20.95;63.80;99371.91;4470256;32;20104;-79
2023/09/29 07:30:50;;;;;;;9.32;5.28;;;;;;;21.00;64.04;99374.84;4476563;32;20109;-80
2023/09/29 07:33:19;;;;;;;14.87;5.45;;;;;;;21.13;63.29;99373.31;4474607;32;20481;-80
2023/09/29 07:35:46;;;;;;;10.88;4.72;;;;;;;21.10;63.59;99374.50;4471514;32;20118;-79
2023/09/29 07:38:16;;;;;;;16.08;5.10;;;;;;;21.18;64.30;99371.72;4473330;31;20099;-79
2023/09/29 07:40:46;;;;;;;9.77;4.97;;;;;;;21.17;63.64;99375.41;4475010;31;20622;-79
2023/09/29 07:43:13;;;;;;;8.93;5.22;;;;;;;21.21;63.92;99375.81;4471113;31;20580;-78
2023/09/29 07:45:41;;;;;;;27.45;6.57;;;;;;;21.19;63.03;99377.88;4475510;31;20134;-78
2023/09/29 07:48:10;;;;;;;13.95;5.40;;;;;;;21.16;63.33;99376.41;4471509;32;20149;-78
2023/09/29 07:50:37;;;;;;;18.08;5.47;;;;;;;21.41;63.95;99376.84;4477052;32;20151;-79
2023/09/29 07:53:05;;;;;;;9.23;5.12;;;;;;;21.43;62.99;99374.78;4473060;32;20495;-78
2023/09/29 07:55:32;;;;;;;11.32;5.18;;;;;;;21.62;63.19;99377.84;4471943;32;20107;-81
2023/09/29 07:58:00;;;;;;;9.40;4.90;;;;;;;21.70;61.88;99380.38;4472732;32;20099;-80
2023/09/29 08:00:27;;;;;;;16.67;4.90;;;;;;;21.79;63.04;99367.72;4474145;31;20135;-78
2023/09/29 08:02:57;;;;;;;14.87;4.80;;;;;;;21.82;62.01;99377.16;4473757;31;20139;-79
2023/09/29 08:05:25;;;;;;;13.70;5.57;;;;;;;21.90;62.93;99375.16;4474167;31;20101;-78
2023/09/29 08:07:53;;;;;;;11.85;5.95;;;;;;;21.98;62.18;99376.84;4459871;31;20155;-78
2023/09/29 08:10:20;;;;;;;12.82;5.60;;;;;;;21.74;61.65;99375.47;4472723;31;20101;-78
2023/09/29 08:12:48;;;;;;;37.45;6.55;;;;;;;21.92;62.39;99378.47;4469692;31;20124;-78
2023/09/29 08:15:20;;;;;;;12.25;4.90;;;;;;;21.91;62.13;99373.34;4468790;32;20088;-78
2023/09/29 08:17:48;;;;;;;10.73;5.35;;;;;;;21.68;61.73;99378.91;4471712;32;20085;-78
2023/09/29 08:20:17;;;;;;;8.73;5.70;;;;;;;21.92;62.95;99382.97;4468007;32;20692;-78
2023/09/29 08:22:45;;;;;;;13.00;5.93;;;;;;;21.89;61.48;99373.53;4472623;31;20139;-79
2023/09/29 08:25:15;;;;;;;15.00;5.68;;;;;;;22.02;62.06;99375.44;4466251;32;20080;-79
2023/09/29 08:27:43;;;;;;;10.95;5.00;;;;;;;22.18;61.87;99376.13;4471670;31;20149;-78
2023/09/29 08:30:10;;;;;;;8.75;5.60;;;;;;;22.26;61.17;99379.47;4468653;32;20173;-78
2023/09/29 08:32:42;;;;;;;16.60;5.30;;;;;;;22.18;59.57;99387.66;4471685;32;20093;-79
2023/09/29 08:35:13;;;;;;;13.05;5.93;;;;;;;22.43;59.34;99381.81;4467280;32;20150;-78
2023/09/29 08:37:45;;;;;;;15.45;5.30;;;;;;;22.57;59.53;99377.34;4470017;31;20397;-78
2023/09/29 08:40:14;;;;;;;13.50;5.95;;;;;;;22.75;59.47;99372.25;4474388;32;20085;-78
2023/09/29 08:42:46;;;;;;;13.65;5.85;;;;;;;22.72;58.05;99378.00;4471056;32;20097;-79
2023/09/29 08:45:17;;;;;;;10.25;5.57;;;;;;;22.61;58.79;99381.28;4470940;32;20119;-80
2023/09/29 08:47:50;;;;;;;10.70;5.07;;;;;;;22.89;58.75;99377.66;4473133;31;20557;-78
2023/09/29 08:50:18;;;;;;;12.70;5.43;;;;;;;23.01;59.82;99378.69;4475042;31;20104;-76
2023/09/29 08:52:49;;;;;;;16.15;5.40;;;;;;;22.96;56.74;99378.50;4470327;31;20135;-78
2023/09/29 08:55:17;;;;;;;23.17;6.43;;;;;;;23.08;57.87;99382.19;4469616;32;20085;-79
2023/09/29 08:57:45;;;;;;;11.02;5.40;;;;;;;23.14;56.34;99393.97;4473093;31;20088;-77
2023/09/29 09:00:13;;;;;;;8.82;4.82;;;;;;;23.18;56.99;99388.00;4469847;32;20100;-75
2023/09/29 09:02:42;;;;;;;10.77;5.22;;;;;;;23.29;56.93;99389.25;4469992;31;20142;-75
2023/09/29 09:05:12;;;;;;;9.45;5.55;;;;;;;23.31;55.68;99391.72;4472948;32;20088;-75
2023/09/29 09:07:40;;;;;;;14.18;6.43;;;;;;;23.31;57.15;99394.38;4477247;31;20164;-75
2023/09/29 09:10:09;;;;;;;11.90;5.50;;;;;;;23.50;57.68;99385.56;4471941;32;20108;-76
2023/09/29 09:12:55;;;;;;;13.65;5.70;;;;;;;23.80;57.85;99390.47;4470988;32;20100;-77
2023/09/29 09:15:27;;;;;;;17.45;6.05;;;;;;;23.70;56.12;99390.06;4469371;32;20109;-77
2023/09/29 09:17:58;;;;;;;12.10;6.10;;;;;;;23.83;55.61;99391.87;4470536;32;20097;-73
2023/09/29 09:20:26;;;;;;;14.05;6.18;;;;;;;23.87;55.32;99393.16;4471530;32;20509;-75
2023/09/29 09:23:02;;;;;;;15.40;5.93;;;;;;;23.75;56.25;99390.25;4471471;31;20125;-76
2023/09/29 09:25:38;;;;;;;14.57;6.07;;;;;;;23.77;56.28;99380.19;4473337;31;20088;-74
2023/09/29 09:28:06;;;;;;;10.93;5.80;;;;;;;23.82;55.73;99391.06;4470427;32;20100;-74
2023/09/29 09:30:36;;;;;;;8.57;5.07;;;;;;;23.85;53.12;99389.88;4474473;32;20087;-75
2023/09/29 09:33:07;;;;;;;10.77;5.95;;;;;;;24.03;53.89;99386.56;4472162;31;20118;-74
2023/09/29 09:35:38;;;;;;;13.73;5.95;;;;;;;24.13;54.58;99384.22;4467447;32;20105;-75
2023/09/29 09:38:05;;;;;;;13.20;5.90;;;;;;;24.14;53.81;99385.88;4470632;32;20500;-76
2023/09/29 09:40:32;;;;;;;9.98;5.70;;;;;;;24.03;54.34;99381.19;4474756;31;20454;-78
2023/09/29 09:43:10;;;;;;;16.92;5.90;;;;;;;24.12;55.51;99381.75;4475477;31;20229;-80
2023/09/29 09:45:42;;;;;;;15.02;6.18;;;;;;;24.13;54.81;99380.75;4470991;31;20511;-80
2023/09/29 09:48:15;;;;;;;15.23;5.97;;;;;;;24.10;55.00;99381.97;4473309;32;20123;-80
2023/09/29 09:50:45;;;;;;;11.93;5.45;;;;;;;24.46;56.32;99383.31;4472686;31;20085;-80
2023/09/29 09:53:16;;;;;;;12.63;6.20;;;;;;;24.73;55.78;99380.53;4473046;32;20084;-80
2023/09/29 09:55:55;;;;;;;9.60;5.43;;;;;;;24.70;53.47;99383.63;4471191;31;20143;-75
2023/09/29 09:58:24;;;;;;;18.62;6.10;;;;;;;24.82;54.16;99376.56;4470430;31;20088;-80
2023/09/29 10:00:55;;;;;;;17.48;5.97;;;;;;;24.90;52.29;99381.66;4470413;31;20088;-81
2023/09/29 10:03:26;;;;;;;18.17;5.82;;;;;;;24.79;55.13;99377.81;4474303;32;20122;-79
2023/09/29 10:05:56;;;;;;;10.98;5.78;;;;;;;24.60;55.46;99374.22;4474467;31;20119;-79
2023/09/29 10:08:29;;;;;;;15.35;6.18;;;;;;;24.71;54.05;99377.22;4465773;32;20096;-80
2023/09/29 10:11:11;;;;;;;16.40;5.87;;;;;;;24.96;52.49;99377.28;4484656;31;20100;-80
2023/09/29 10:13:44;;;;;;;8.43;5.32;;;;;;;24.98;53.51;99375.22;4469707;32;20100;-78
2023/09/29 10:16:23;;;;;;;11.12;5.00;;;;;;;24.90;53.86;99370.13;4480713;32;20096;-78
2023/09/29 10:18:59;;;;;;;24.52;5.35;;;;;;;25.06;48.57;99364.25;4470680;32;20105;-78
2023/09/29 10:21:33;;;;;;;29.40;6.72;;;;;;;25.12;48.02;99371.41;4483943;31;20084;-79
2023/09/29 10:24:05;;;;;;;12.82;5.00;;;;;;;24.87;47.31;99373.22;4483277;31;20152;-76
2023/09/29 10:26:44;;;;;;;17.23;5.53;;;;;;;24.96;47.99;99367.38;4486800;31;20423;-77
2023/09/29 10:29:19;;;;;;;27.13;6.03;;;;;;;25.02;47.61;99365.69;4478768;32;20119;-77
2023/09/29 10:31:49;;;;;;;14.68;5.72;;;;;;;25.23;49.17;99367.19;4480963;32;20176;-77
2023/09/29 10:34:24;;;;;;;10.52;5.90;;;;;;;25.44;48.94;99365.22;4482001;32;20150;-78
2023/09/29 10:36:55;;;;;;;28.75;6.47;;;;;;;25.40;46.41;99355.97;4482343;31;20103;-76
2023/09/29 10:39:28;;;;;;;43.78;6.03;;;;;;;25.38;47.85;99363.41;4479923;31;20670;-79
2023/09/29 10:42:12;;;;;;;17.20;5.65;;;;;;;25.45;49.98;99354.28;4488180;31;20118;-80
2023/09/29 10:44:44;;;;;;;14.18;5.05;;;;;;;25.46;47.47;99357.75;4480066;31;20131;-80
2023/09/29 10:47:16;;;;;;;19.42;6.30;;;;;;;25.46;47.75;99357.75;4479476;32;20111;-79
2023/09/29 10:49:46;;;;;;;14.68;5.87;;;;;;;25.45;46.08;99348.91;4478625;32;20104;-79
2023/09/29 10:52:23;;;;;;;18.42;6.72;;;;;;;25.61;49.06;99352.06;4476365;32;20088;-77
2023/09/29 10:54:56;;;;;;;10.95;5.25;;;;;;;25.62;47.05;99359.06;4472611;31;20124;-79
2023/09/29 10:57:26;;;;;;;12.60;5.90;;;;;;;25.57;43.95;99348.16;4473291;32;20089;-80
2023/09/29 10:59:59;;;;;;;29.52;5.72;;;;;;;25.42;47.08;99343.13;4474301;32;20133;-79
2023/09/29 11:02:32;;;;;;;15.85;5.85;;;;;;;25.49;44.87;99347.41;4473742;32;20188;-80
2023/09/29 11:05:07;;;;;;;15.05;5.87;;;;;;;25.71;45.75;99341.66;4467380;31;20426;-81
2023/09/29 11:07:48;;;;;;;13.18;5.05;;;;;;;25.79;46.34;99341.34;4485270;31;20120;-80
2023/09/29 11:10:17;;;;;;;8.60;5.30;;;;;;;25.79;47.09;99335.16;4479090;31;20087;-80
2023/09/29 11:12:48;;;;;;;14.02;5.62;;;;;;;26.09;47.54;99324.53;4482970;31;20096;-81
2023/09/29 11:15:16;;;;;;;16.37;5.25;;;;;;;25.60;45.49;99327.09;4477110;31;20096;-80
2023/09/29 11:17:45;;;;;;;7.65;4.72;;;;;;;25.78;44.65;99328.16;4471001;32;20092;-79
2023/09/29 11:20:27;;;;;;;19.58;5.53;;;;;;;25.77;44.49;99324.66;4479875;31;20092;-78
2023/09/29 11:23:11;;;;;;;7.65;4.93;;;;;;;25.94;45.42;99321.38;4467358;31;20081;-80
2023/09/29 11:25:49;;;;;;;10.95;5.00;;;;;;;25.85;43.61;99318.16;4477204;31;20104;-80
2023/09/29 11:28:17;;;;;;;11.20;4.40;;;;;;;25.78;42.26;99315.53;4486480;31;20088;-80
2023/09/29 11:30:45;;;;;;;7.18;4.53;;;;;;;25.78;40.27;99320.91;4480848;31;20165;-79
2023/09/29 11:33:13;;;;;;;16.60;5.10;;;;;;;25.69;40.19;99314.19;4481879;31;20105;-80
2023/09/29 11:35:45;;;;;;;11.95;5.20;;;;;;;25.99;41.14;99310.81;4481979;31;20154;-79
2023/09/29 11:38:33;;;;;;;9.27;5.32;;;;;;;26.17;42.14;99308.09;4482198;31;20132;-79
2023/09/29 11:41:01;;;;;;;10.07;4.80;;;;;;;26.20;40.86;99304.94;4483224;31;20119;-80